BIENTÔT MET'MAP
version 2.0 !

Prévue avant fin octobre,
la nouvelle version sera
plus belle, plus complète
et hébergée sur un serveur
3 fois plus puissant...
et toujours gratuite !


Pas compatible ?
Essayez la version Mobile !

SE CONNECTER : | S'inscrire | Disclaimer | Découvrir Orbifly |
Code OACI :

TAF - LSMA Alpnach - 23 Feb 2020 21:58 UTC
Data Sources :     NOAA   


- Altitude de l'aérodrome : 1460 ft
- Pas de NOTAMs connus.


LSMA - Alpnach

Dernier METAR connu : 2015/08/11 07:50 LSMA 110750Z 06006KT 8000 SCT014 SCT028 OVC047 21/19 Q1017 RMK WHT
Prévision TAF périmée.

Source NOAA


MET'MAP, la Météo Aéronautique d'un coup d'oeil ! - Copyright ORBIFLY Décembre 2007

Développement & Programmation : Alexandra Zaïnal
Co-Développement : Marc-Olivier Méhu
Soutien technique & logistique : Manuel Goepfert
Conception & Financement : Baudouin d'Aumeries